sensor_id;sensor_type;location;lat;lon;timestamp;P1;durP1;ratioP1;P2;durP2;ratioP2
16119;SDS011;12670;53.502;10.252;2023-01-06T00:01:03;11.87;;;3.60;;
16119;SDS011;12670;53.502;10.252;2023-01-06T00:04:07;13.03;;;4.00;;
16119;SDS011;12670;53.502;10.252;2023-01-06T00:07:10;13.43;;;3.50;;
16119;SDS011;12670;53.502;10.252;2023-01-06T00:10:14;11.27;;;3.50;;
16119;SDS011;12670;53.502;10.252;2023-01-06T00:13:16;9.93;;;3.43;;
16119;SDS011;12670;53.502;10.252;2023-01-06T00:16:19;9.10;;;3.20;;
16119;SDS011;12670;53.502;10.252;2023-01-06T00:19:22;7.80;;;2.97;;
16119;SDS011;12670;53.502;10.252;2023-01-06T00:22:24;8.30;;;2.93;;
16119;SDS011;12670;53.502;10.252;2023-01-06T00:25:29;10.93;;;3.50;;
16119;SDS011;12670;53.502;10.252;2023-01-06T00:28:31;8.47;;;3.33;;
16119;SDS011;12670;53.502;10.252;2023-01-06T00:31:35;15.27;;;3.80;;
16119;SDS011;12670;53.502;10.252;2023-01-06T00:34:39;12.17;;;4.17;;
16119;SDS011;12670;53.502;10.252;2023-01-06T00:37:41;14.53;;;4.10;;
16119;SDS011;12670;53.502;10.252;2023-01-06T00:40:45;15.63;;;4.27;;
16119;SDS011;12670;53.502;10.252;2023-01-06T00:43:48;16.03;;;4.53;;
16119;SDS011;12670;53.502;10.252;2023-01-06T00:46:50;10.23;;;4.03;;
16119;SDS011;12670;53.502;10.252;2023-01-06T00:49:53;16.37;;;4.43;;
16119;SDS011;12670;53.502;10.252;2023-01-06T00:52:56;12.93;;;4.57;;
16119;SDS011;12670;53.502;10.252;2023-01-06T00:56:00;15.57;;;4.50;;
16119;SDS011;12670;53.502;10.252;2023-01-06T00:59:03;18.07;;;5.03;;
16119;SDS011;12670;53.502;10.252;2023-01-06T01:02:06;17.60;;;4.93;;
16119;SDS011;12670;53.502;10.252;2023-01-06T01:05:09;16.77;;;4.93;;
16119;SDS011;12670;53.502;10.252;2023-01-06T01:08:12;14.30;;;5.03;;
16119;SDS011;12670;53.502;10.252;2023-01-06T01:11:16;19.73;;;6.10;;
16119;SDS011;12670;53.502;10.252;2023-01-06T01:14:32;16.53;;;5.73;;
16119;SDS011;12670;53.502;10.252;2023-01-06T01:17:35;15.13;;;5.90;;
16119;SDS011;12670;53.502;10.252;2023-01-06T01:20:38;20.27;;;6.00;;
16119;SDS011;12670;53.502;10.252;2023-01-06T01:23:40;12.17;;;5.23;;
16119;SDS011;12670;53.502;10.252;2023-01-06T01:26:44;16.77;;;6.17;;
16119;SDS011;12670;53.502;10.252;2023-01-06T01:29:47;18.13;;;5.77;;
16119;SDS011;12670;53.502;10.252;2023-01-06T01:32:50;18.90;;;6.33;;
16119;SDS011;12670;53.502;10.252;2023-01-06T01:35:53;15.13;;;6.17;;
16119;SDS011;12670;53.502;10.252;2023-01-06T01:38:55;19.17;;;6.80;;
16119;SDS011;12670;53.502;10.252;2023-01-06T01:42:00;23.33;;;6.80;;
16119;SDS011;12670;53.502;10.252;2023-01-06T01:45:03;14.57;;;7.10;;
16119;SDS011;12670;53.502;10.252;2023-01-06T01:48:09;15.03;;;6.33;;
16119;SDS011;12670;53.502;10.252;2023-01-06T01:51:22;12.83;;;6.63;;
16119;SDS011;12670;53.502;10.252;2023-01-06T01:54:30;13.93;;;5.87;;
16119;SDS011;12670;53.502;10.252;2023-01-06T01:57:37;14.93;;;6.60;;
16119;SDS011;12670;53.502;10.252;2023-01-06T02:00:45;14.87;;;6.50;;
16119;SDS011;12670;53.502;10.252;2023-01-06T02:03:48;13.13;;;6.30;;
16119;SDS011;12670;53.502;10.252;2023-01-06T02:06:52;17.67;;;6.03;;
16119;SDS011;12670;53.502;10.252;2023-01-06T02:09:57;11.37;;;5.60;;
16119;SDS011;12670;53.502;10.252;2023-01-06T02:13:10;12.17;;;5.57;;
16119;SDS011;12670;53.502;10.252;2023-01-06T02:16:15;16.50;;;5.73;;
16119;SDS011;12670;53.502;10.252;2023-01-06T02:19:30;9.00;;;4.90;;
16119;SDS011;12670;53.502;10.252;2023-01-06T02:23:11;8.70;;;5.33;;
16119;SDS011;12670;53.502;10.252;2023-01-06T02:30:27;10.30;;;5.40;;
16119;SDS011;12670;53.502;10.252;2023-01-06T02:33:52;11.93;;;5.20;;
16119;SDS011;12670;53.502;10.252;2023-01-06T02:37:03;10.60;;;5.80;;
16119;SDS011;12670;53.502;10.252;2023-01-06T02:40:14;12.23;;;6.17;;
16119;SDS011;12670;53.502;10.252;2023-01-06T02:43:31;11.37;;;6.70;;
16119;SDS011;12670;53.502;10.252;2023-01-06T02:46:44;14.50;;;7.43;;
16119;SDS011;12670;53.502;10.252;2023-01-06T02:50:00;14.50;;;7.53;;
16119;SDS011;12670;53.502;10.252;2023-01-06T02:53:13;15.23;;;7.33;;
16119;SDS011;12670;53.502;10.252;2023-01-06T02:56:22;15.20;;;7.67;;
16119;SDS011;12670;53.502;10.252;2023-01-06T02:59:31;14.23;;;8.10;;
16119;SDS011;12670;53.502;10.252;2023-01-06T03:02:38;14.07;;;7.60;;
16119;SDS011;12670;53.502;10.252;2023-01-06T03:05:47;14.03;;;7.97;;
16119;SDS011;12670;53.502;10.252;2023-01-06T03:08:53;16.40;;;9.00;;
16119;SDS011;12670;53.502;10.252;2023-01-06T03:11:57;18.83;;;9.27;;
16119;SDS011;12670;53.502;10.252;2023-01-06T03:15:02;17.17;;;9.13;;
16119;SDS011;12670;53.502;10.252;2023-01-06T03:18:05;15.53;;;8.50;;
16119;SDS011;12670;53.502;10.252;2023-01-06T03:21:10;20.37;;;10.50;;
16119;SDS011;12670;53.502;10.252;2023-01-06T03:24:15;18.87;;;9.93;;
16119;SDS011;12670;53.502;10.252;2023-01-06T03:27:20;17.00;;;9.53;;
16119;SDS011;12670;53.502;10.252;2023-01-06T03:30:27;15.23;;;8.70;;
16119;SDS011;12670;53.502;10.252;2023-01-06T03:33:40;15.47;;;8.53;;
16119;SDS011;12670;53.502;10.252;2023-01-06T03:36:53;16.90;;;8.97;;
16119;SDS011;12670;53.502;10.252;2023-01-06T03:40:05;17.10;;;8.03;;
16119;SDS011;12670;53.502;10.252;2023-01-06T03:43:13;14.90;;;8.93;;
16119;SDS011;12670;53.502;10.252;2023-01-06T03:46:27;19.63;;;9.23;;
16119;SDS011;12670;53.502;10.252;2023-01-06T03:49:37;16.13;;;8.53;;
16119;SDS011;12670;53.502;10.252;2023-01-06T03:52:50;14.53;;;8.60;;
16119;SDS011;12670;53.502;10.252;2023-01-06T03:56:11;15.43;;;9.20;;
16119;SDS011;12670;53.502;10.252;2023-01-06T03:59:19;17.53;;;8.70;;
16119;SDS011;12670;53.502;10.252;2023-01-06T04:02:24;17.07;;;9.40;;
16119;SDS011;12670;53.502;10.252;2023-01-06T04:05:27;18.23;;;9.13;;
16119;SDS011;12670;53.502;10.252;2023-01-06T04:08:31;14.73;;;8.90;;
16119;SDS011;12670;53.502;10.252;2023-01-06T04:11:34;15.60;;;8.73;;
16119;SDS011;12670;53.502;10.252;2023-01-06T04:14:54;14.90;;;9.17;;
16119;SDS011;12670;53.502;10.252;2023-01-06T04:17:57;21.37;;;9.40;;
16119;SDS011;12670;53.502;10.252;2023-01-06T04:21:00;17.57;;;9.50;;
16119;SDS011;12670;53.502;10.252;2023-01-06T04:24:04;18.97;;;10.10;;
16119;SDS011;12670;53.502;10.252;2023-01-06T04:27:07;20.33;;;10.07;;
16119;SDS011;12670;53.502;10.252;2023-01-06T04:30:10;19.23;;;10.40;;
16119;SDS011;12670;53.502;10.252;2023-01-06T04:33:13;18.40;;;9.47;;
16119;SDS011;12670;53.502;10.252;2023-01-06T04:36:16;22.03;;;10.43;;
16119;SDS011;12670;53.502;10.252;2023-01-06T04:39:21;19.90;;;10.50;;
16119;SDS011;12670;53.502;10.252;2023-01-06T04:42:24;23.70;;;11.03;;
16119;SDS011;12670;53.502;10.252;2023-01-06T04:45:26;23.03;;;10.73;;
16119;SDS011;12670;53.502;10.252;2023-01-06T04:48:29;21.90;;;10.73;;
16119;SDS011;12670;53.502;10.252;2023-01-06T04:51:32;18.70;;;10.40;;
16119;SDS011;12670;53.502;10.252;2023-01-06T04:54:36;24.50;;;10.73;;
16119;SDS011;12670;53.502;10.252;2023-01-06T04:57:39;18.13;;;10.40;;
16119;SDS011;12670;53.502;10.252;2023-01-06T05:00:42;18.07;;;10.50;;
16119;SDS011;12670;53.502;10.252;2023-01-06T05:03:44;24.03;;;10.17;;
16119;SDS011;12670;53.502;10.252;2023-01-06T05:06:47;26.53;;;11.60;;
16119;SDS011;12670;53.502;10.252;2023-01-06T05:09:51;19.50;;;10.50;;
16119;SDS011;12670;53.502;10.252;2023-01-06T05:12:54;21.27;;;10.80;;
16119;SDS011;12670;53.502;10.252;2023-01-06T05:15:56;22.73;;;11.10;;
16119;SDS011;12670;53.502;10.252;2023-01-06T05:18:59;23.93;;;11.90;;
16119;SDS011;12670;53.502;10.252;2023-01-06T05:22:02;20.47;;;11.87;;
16119;SDS011;12670;53.502;10.252;2023-01-06T05:25:07;25.43;;;11.13;;
16119;SDS011;12670;53.502;10.252;2023-01-06T05:28:10;23.00;;;11.53;;
16119;SDS011;12670;53.502;10.252;2023-01-06T05:31:13;22.53;;;12.07;;
16119;SDS011;12670;53.502;10.252;2023-01-06T05:34:16;25.53;;;12.90;;
16119;SDS011;12670;53.502;10.252;2023-01-06T05:37:18;25.70;;;13.20;;
16119;SDS011;12670;53.502;10.252;2023-01-06T05:40:22;43.23;;;21.20;;
16119;SDS011;12670;53.502;10.252;2023-01-06T05:43:25;32.17;;;14.20;;
16119;SDS011;12670;53.502;10.252;2023-01-06T05:46:28;25.93;;;13.60;;
16119;SDS011;12670;53.502;10.252;2023-01-06T05:49:31;21.33;;;12.00;;
16119;SDS011;12670;53.502;10.252;2023-01-06T05:52:33;29.33;;;14.27;;
16119;SDS011;12670;53.502;10.252;2023-01-06T05:55:37;26.33;;;14.20;;
16119;SDS011;12670;53.502;10.252;2023-01-06T05:58:42;27.70;;;14.80;;
16119;SDS011;12670;53.502;10.252;2023-01-06T06:01:46;26.60;;;13.30;;
16119;SDS011;12670;53.502;10.252;2023-01-06T06:04:49;27.73;;;13.00;;
16119;SDS011;12670;53.502;10.252;2023-01-06T06:07:52;23.50;;;13.07;;
16119;SDS011;12670;53.502;10.252;2023-01-06T06:11:00;27.63;;;12.07;;
16119;SDS011;12670;53.502;10.252;2023-01-06T06:14:03;25.97;;;13.33;;
16119;SDS011;12670;53.502;10.252;2023-01-06T06:17:06;23.53;;;13.20;;
16119;SDS011;12670;53.502;10.252;2023-01-06T06:20:08;26.60;;;13.87;;
16119;SDS011;12670;53.502;10.252;2023-01-06T06:23:11;26.27;;;14.90;;
16119;SDS011;12670;53.502;10.252;2023-01-06T06:26:15;26.93;;;13.30;;
16119;SDS011;12670;53.502;10.252;2023-01-06T06:29:18;26.47;;;13.30;;
16119;SDS011;12670;53.502;10.252;2023-01-06T06:32:20;26.00;;;14.30;;
16119;SDS011;12670;53.502;10.252;2023-01-06T06:35:23;21.80;;;13.20;;
16119;SDS011;12670;53.502;10.252;2023-01-06T06:38:26;26.80;;;13.83;;
16119;SDS011;12670;53.502;10.252;2023-01-06T06:41:30;31.77;;;14.23;;
16119;SDS011;12670;53.502;10.252;2023-01-06T06:44:33;27.67;;;14.40;;
16119;SDS011;12670;53.502;10.252;2023-01-06T06:47:35;26.87;;;14.23;;
16119;SDS011;12670;53.502;10.252;2023-01-06T06:50:38;24.40;;;14.93;;
16119;SDS011;12670;53.502;10.252;2023-01-06T06:53:41;28.63;;;16.07;;
16119;SDS011;12670;53.502;10.252;2023-01-06T06:56:45;24.73;;;14.57;;
16119;SDS011;12670;53.502;10.252;2023-01-06T06:59:48;26.30;;;15.70;;
16119;SDS011;12670;53.502;10.252;2023-01-06T07:02:51;26.33;;;14.63;;
16119;SDS011;12670;53.502;10.252;2023-01-06T07:05:54;25.77;;;14.40;;
16119;SDS011;12670;53.502;10.252;2023-01-06T07:08:57;24.63;;;14.73;;
16119;SDS011;12670;53.502;10.252;2023-01-06T07:12:01;27.77;;;15.73;;
16119;SDS011;12670;53.502;10.252;2023-01-06T07:15:04;25.83;;;15.37;;
16119;SDS011;12670;53.502;10.252;2023-01-06T07:18:07;25.73;;;15.80;;
16119;SDS011;12670;53.502;10.252;2023-01-06T07:21:09;22.07;;;14.70;;
16119;SDS011;12670;53.502;10.252;2023-01-06T07:24:12;24.23;;;14.17;;
16119;SDS011;12670;53.502;10.252;2023-01-06T07:27:16;22.93;;;14.30;;
16119;SDS011;12670;53.502;10.252;2023-01-06T07:30:19;21.47;;;13.77;;
16119;SDS011;12670;53.502;10.252;2023-01-06T07:33:21;23.33;;;15.00;;
16119;SDS011;12670;53.502;10.252;2023-01-06T07:36:24;22.90;;;13.77;;
16119;SDS011;12670;53.502;10.252;2023-01-06T07:39:26;24.73;;;14.33;;
16119;SDS011;12670;53.502;10.252;2023-01-06T07:42:30;24.03;;;13.70;;
16119;SDS011;12670;53.502;10.252;2023-01-06T07:45:33;23.57;;;14.23;;
16119;SDS011;12670;53.502;10.252;2023-01-06T07:48:36;24.10;;;14.27;;
16119;SDS011;12670;53.502;10.252;2023-01-06T07:51:39;28.50;;;14.57;;
16119;SDS011;12670;53.502;10.252;2023-01-06T07:54:42;22.47;;;13.07;;
16119;SDS011;12670;53.502;10.252;2023-01-06T07:57:46;26.33;;;14.10;;
16119;SDS011;12670;53.502;10.252;2023-01-06T08:00:48;21.17;;;12.67;;
16119;SDS011;12670;53.502;10.252;2023-01-06T08:03:51;18.87;;;12.87;;
16119;SDS011;12670;53.502;10.252;2023-01-06T08:06:54;30.20;;;15.43;;
16119;SDS011;12670;53.502;10.252;2023-01-06T08:09:56;21.27;;;13.00;;
16119;SDS011;12670;53.502;10.252;2023-01-06T08:13:00;23.70;;;12.23;;
16119;SDS011;12670;53.502;10.252;2023-01-06T08:16:03;24.00;;;13.43;;
16119;SDS011;12670;53.502;10.252;2023-01-06T08:19:06;18.33;;;11.97;;
16119;SDS011;12670;53.502;10.252;2023-01-06T08:22:09;18.27;;;11.33;;
16119;SDS011;12670;53.502;10.252;2023-01-06T08:25:11;19.33;;;11.47;;
16119;SDS011;12670;53.502;10.252;2023-01-06T08:28:15;18.73;;;12.30;;
16119;SDS011;12670;53.502;10.252;2023-01-06T08:31:19;19.73;;;11.23;;
16119;SDS011;12670;53.502;10.252;2023-01-06T08:34:22;16.90;;;10.77;;
16119;SDS011;12670;53.502;10.252;2023-01-06T08:37:25;15.73;;;10.57;;
16119;SDS011;12670;53.502;10.252;2023-01-06T08:40:29;17.87;;;11.20;;
16119;SDS011;12670;53.502;10.252;2023-01-06T08:43:34;16.77;;;11.57;;
16119;SDS011;12670;53.502;10.252;2023-01-06T08:46:37;18.97;;;11.50;;
16119;SDS011;12670;53.502;10.252;2023-01-06T08:49:39;13.40;;;9.60;;
16119;SDS011;12670;53.502;10.252;2023-01-06T08:52:42;14.40;;;9.40;;
16119;SDS011;12670;53.502;10.252;2023-01-06T08:55:45;22.53;;;10.53;;
16119;SDS011;12670;53.502;10.252;2023-01-06T08:58:50;12.23;;;8.30;;
16119;SDS011;12670;53.502;10.252;2023-01-06T09:01:54;12.33;;;8.37;;
16119;SDS011;12670;53.502;10.252;2023-01-06T09:04:57;18.97;;;8.47;;
16119;SDS011;12670;53.502;10.252;2023-01-06T09:07:59;12.80;;;7.20;;
16119;SDS011;12670;53.502;10.252;2023-01-06T09:11:03;12.37;;;6.97;;
16119;SDS011;12670;53.502;10.252;2023-01-06T09:14:08;14.87;;;7.23;;
16119;SDS011;12670;53.502;10.252;2023-01-06T09:17:11;12.80;;;6.83;;
16119;SDS011;12670;53.502;10.252;2023-01-06T09:20:14;10.83;;;6.47;;
16119;SDS011;12670;53.502;10.252;2023-01-06T09:23:16;10.33;;;6.17;;
16119;SDS011;12670;53.502;10.252;2023-01-06T09:26:21;9.43;;;6.40;;
16119;SDS011;12670;53.502;10.252;2023-01-06T09:29:25;9.03;;;5.67;;
16119;SDS011;12670;53.502;10.252;2023-01-06T09:32:27;10.97;;;5.10;;
16119;SDS011;12670;53.502;10.252;2023-01-06T09:35:30;10.33;;;5.50;;
16119;SDS011;12670;53.502;10.252;2023-01-06T09:38:33;10.97;;;5.30;;
16119;SDS011;12670;53.502;10.252;2023-01-06T09:41:45;8.63;;;5.27;;
16119;SDS011;12670;53.502;10.252;2023-01-06T09:45:03;9.27;;;5.20;;
16119;SDS011;12670;53.502;10.252;2023-01-06T09:48:11;8.70;;;4.80;;
16119;SDS011;12670;53.502;10.252;2023-01-06T09:51:19;7.27;;;4.80;;
16119;SDS011;12670;53.502;10.252;2023-01-06T09:54:25;8.07;;;4.17;;
16119;SDS011;12670;53.502;10.252;2023-01-06T09:57:33;10.37;;;4.60;;
16119;SDS011;12670;53.502;10.252;2023-01-06T10:00:41;7.80;;;4.20;;
16119;SDS011;12670;53.502;10.252;2023-01-06T10:03:45;7.80;;;4.37;;
16119;SDS011;12670;53.502;10.252;2023-01-06T10:06:50;8.53;;;4.40;;
16119;SDS011;12670;53.502;10.252;2023-01-06T10:10:03;9.47;;;3.87;;
16119;SDS011;12670;53.502;10.252;2023-01-06T10:13:21;10.70;;;3.97;;
16119;SDS011;12670;53.502;10.252;2023-01-06T10:16:43;5.97;;;3.73;;
16119;SDS011;12670;53.502;10.252;2023-01-06T10:20:02;9.90;;;4.27;;
16119;SDS011;12670;53.502;10.252;2023-01-06T10:23:14;6.27;;;4.37;;
16119;SDS011;12670;53.502;10.252;2023-01-06T10:26:28;7.83;;;4.57;;
16119;SDS011;12670;53.502;10.252;2023-01-06T10:29:33;8.00;;;4.63;;
16119;SDS011;12670;53.502;10.252;2023-01-06T10:32:40;8.33;;;4.63;;
16119;SDS011;12670;53.502;10.252;2023-01-06T10:35:44;8.83;;;4.70;;
16119;SDS011;12670;53.502;10.252;2023-01-06T10:38:48;11.73;;;4.20;;
16119;SDS011;12670;53.502;10.252;2023-01-06T10:42:01;8.13;;;4.30;;
16119;SDS011;12670;53.502;10.252;2023-01-06T10:45:30;6.27;;;3.93;;
16119;SDS011;12670;53.502;10.252;2023-01-06T10:48:36;6.23;;;4.07;;
16119;SDS011;12670;53.502;10.252;2023-01-06T10:51:41;8.77;;;3.90;;
16119;SDS011;12670;53.502;10.252;2023-01-06T10:54:45;6.80;;;3.67;;
16119;SDS011;12670;53.502;10.252;2023-01-06T10:57:51;6.33;;;3.77;;
16119;SDS011;12670;53.502;10.252;2023-01-06T11:00:57;7.27;;;4.13;;
16119;SDS011;12670;53.502;10.252;2023-01-06T11:04:06;5.80;;;3.80;;
16119;SDS011;12670;53.502;10.252;2023-01-06T11:07:12;8.30;;;4.07;;
16119;SDS011;12670;53.502;10.252;2023-01-06T11:10:21;7.67;;;3.77;;
16119;SDS011;12670;53.502;10.252;2023-01-06T11:13:29;7.23;;;3.50;;
16119;SDS011;12670;53.502;10.252;2023-01-06T11:16:35;4.63;;;3.70;;
16119;SDS011;12670;53.502;10.252;2023-01-06T11:19:40;7.13;;;3.30;;
16119;SDS011;12670;53.502;10.252;2023-01-06T11:22:44;7.30;;;3.60;;
16119;SDS011;12670;53.502;10.252;2023-01-06T11:26:00;5.10;;;3.00;;
16119;SDS011;12670;53.502;10.252;2023-01-06T11:29:15;3.97;;;2.90;;
16119;SDS011;12670;53.502;10.252;2023-01-06T11:32:20;6.20;;;3.43;;
16119;SDS011;12670;53.502;10.252;2023-01-06T11:35:29;3.60;;;3.17;;
16119;SDS011;12670;53.502;10.252;2023-01-06T11:38:39;3.30;;;2.60;;
16119;SDS011;12670;53.502;10.252;2023-01-06T11:41:44;3.83;;;2.10;;
16119;SDS011;12670;53.502;10.252;2023-01-06T11:44:49;3.63;;;2.20;;
16119;SDS011;12670;53.502;10.252;2023-01-06T11:47:52;2.87;;;2.00;;
16119;SDS011;12670;53.502;10.252;2023-01-06T11:50:56;2.50;;;1.57;;
16119;SDS011;12670;53.502;10.252;2023-01-06T11:54:00;3.57;;;1.40;;
16119;SDS011;12670;53.502;10.252;2023-01-06T11:57:15;3.80;;;1.20;;
16119;SDS011;12670;53.502;10.252;2023-01-06T12:00:28;2.40;;;0.90;;
16119;SDS011;12670;53.502;10.252;2023-01-06T12:03:39;6.50;;;1.17;;
16119;SDS011;12670;53.502;10.252;2023-01-06T12:06:45;1.90;;;1.10;;
16119;SDS011;12670;53.502;10.252;2023-01-06T12:09:49;2.93;;;1.10;;
16119;SDS011;12670;53.502;10.252;2023-01-06T12:12:54;3.83;;;1.07;;
16119;SDS011;12670;53.502;10.252;2023-01-06T12:15:58;5.43;;;1.47;;
16119;SDS011;12670;53.502;10.252;2023-01-06T12:19:03;4.47;;;1.03;;
16119;SDS011;12670;53.502;10.252;2023-01-06T12:22:20;4.70;;;1.10;;
16119;SDS011;12670;53.502;10.252;2023-01-06T12:25:30;2.70;;;0.93;;
16119;SDS011;12670;53.502;10.252;2023-01-06T12:28:37;3.53;;;1.20;;
16119;SDS011;12670;53.502;10.252;2023-01-06T12:31:42;6.53;;;1.40;;
16119;SDS011;12670;53.502;10.252;2023-01-06T12:34:50;3.13;;;0.90;;
16119;SDS011;12670;53.502;10.252;2023-01-06T12:37:57;2.63;;;1.10;;
16119;SDS011;12670;53.502;10.252;2023-01-06T12:41:07;5.63;;;1.30;;
16119;SDS011;12670;53.502;10.252;2023-01-06T12:44:15;7.43;;;1.20;;
16119;SDS011;12670;53.502;10.252;2023-01-06T12:47:31;4.27;;;1.20;;
16119;SDS011;12670;53.502;10.252;2023-01-06T12:50:37;6.47;;;1.53;;
16119;SDS011;12670;53.502;10.252;2023-01-06T12:53:46;6.33;;;1.30;;
16119;SDS011;12670;53.502;10.252;2023-01-06T13:00:34;6.43;;;1.17;;
16119;SDS011;12670;53.502;10.252;2023-01-06T13:07:35;4.17;;;1.23;;
16119;SDS011;12670;53.502;10.252;2023-01-06T13:10:46;8.73;;;1.53;;
16119;SDS011;12670;53.502;10.252;2023-01-06T13:13:57;5.33;;;1.00;;
16119;SDS011;12670;53.502;10.252;2023-01-06T13:17:04;7.87;;;1.43;;
16119;SDS011;12670;53.502;10.252;2023-01-06T13:20:15;6.80;;;1.70;;
16119;SDS011;12670;53.502;10.252;2023-01-06T13:23:27;5.40;;;1.10;;
16119;SDS011;12670;53.502;10.252;2023-01-06T13:26:45;8.93;;;1.50;;
16119;SDS011;12670;53.502;10.252;2023-01-06T13:30:10;4.97;;;1.30;;
16119;SDS011;12670;53.502;10.252;2023-01-06T13:37:19;4.03;;;1.10;;
16119;SDS011;12670;53.502;10.252;2023-01-06T13:40:38;6.50;;;1.27;;
16119;SDS011;12670;53.502;10.252;2023-01-06T13:43:43;3.60;;;1.07;;
16119;SDS011;12670;53.502;10.252;2023-01-06T13:46:49;7.17;;;1.33;;
16119;SDS011;12670;53.502;10.252;2023-01-06T13:49:55;5.17;;;1.17;;
16119;SDS011;12670;53.502;10.252;2023-01-06T13:52:59;7.00;;;1.50;;
16119;SDS011;12670;53.502;10.252;2023-01-06T13:56:22;9.33;;;1.43;;
16119;SDS011;12670;53.502;10.252;2023-01-06T13:59:26;6.20;;;1.30;;
16119;SDS011;12670;53.502;10.252;2023-01-06T14:09:47;4.57;;;1.40;;
16119;SDS011;12670;53.502;10.252;2023-01-06T14:12:51;8.53;;;1.50;;
16119;SDS011;12670;53.502;10.252;2023-01-06T14:15:56;8.87;;;2.13;;
16119;SDS011;12670;53.502;10.252;2023-01-06T14:19:03;9.10;;;1.53;;
16119;SDS011;12670;53.502;10.252;2023-01-06T14:22:12;5.60;;;1.23;;
16119;SDS011;12670;53.502;10.252;2023-01-06T14:25:19;11.70;;;1.67;;
16119;SDS011;12670;53.502;10.252;2023-01-06T14:28:24;6.77;;;1.37;;
16119;SDS011;12670;53.502;10.252;2023-01-06T14:34:48;9.47;;;1.70;;
16119;SDS011;12670;53.502;10.252;2023-01-06T14:37:55;7.70;;;1.30;;
16119;SDS011;12670;53.502;10.252;2023-01-06T14:41:02;9.33;;;2.03;;
16119;SDS011;12670;53.502;10.252;2023-01-06T14:44:10;10.53;;;1.37;;
16119;SDS011;12670;53.502;10.252;2023-01-06T14:47:19;6.77;;;1.67;;
16119;SDS011;12670;53.502;10.252;2023-01-06T14:50:28;8.80;;;1.53;;
16119;SDS011;12670;53.502;10.252;2023-01-06T14:53:48;5.33;;;1.40;;
16119;SDS011;12670;53.502;10.252;2023-01-06T14:56:59;13.93;;;1.83;;
16119;SDS011;12670;53.502;10.252;2023-01-06T15:00:05;6.30;;;1.77;;
16119;SDS011;12670;53.502;10.252;2023-01-06T15:03:17;9.07;;;2.27;;
16119;SDS011;12670;53.502;10.252;2023-01-06T15:06:23;16.80;;;2.43;;
16119;SDS011;12670;53.502;10.252;2023-01-06T15:09:28;10.67;;;2.00;;
16119;SDS011;12670;53.502;10.252;2023-01-06T15:12:31;6.17;;;1.43;;
16119;SDS011;12670;53.502;10.252;2023-01-06T15:15:34;4.27;;;1.57;;
16119;SDS011;12670;53.502;10.252;2023-01-06T15:18:41;6.33;;;1.70;;
16119;SDS011;12670;53.502;10.252;2023-01-06T15:21:45;8.73;;;1.87;;
16119;SDS011;12670;53.502;10.252;2023-01-06T15:24:50;5.93;;;1.80;;
16119;SDS011;12670;53.502;10.252;2023-01-06T15:27:53;10.20;;;1.87;;
16119;SDS011;12670;53.502;10.252;2023-01-06T15:30:58;11.43;;;2.50;;
16119;SDS011;12670;53.502;10.252;2023-01-06T15:34:04;7.13;;;2.17;;
16119;SDS011;12670;53.502;10.252;2023-01-06T15:37:13;10.50;;;1.87;;
16119;SDS011;12670;53.502;10.252;2023-01-06T15:40:18;12.13;;;1.90;;
16119;SDS011;12670;53.502;10.252;2023-01-06T15:43:24;6.43;;;1.57;;
16119;SDS011;12670;53.502;10.252;2023-01-06T15:46:34;7.80;;;1.60;;
16119;SDS011;12670;53.502;10.252;2023-01-06T15:49:42;7.03;;;1.43;;
16119;SDS011;12670;53.502;10.252;2023-01-06T15:52:51;7.90;;;1.87;;
16119;SDS011;12670;53.502;10.252;2023-01-06T15:55:55;7.17;;;1.67;;
16119;SDS011;12670;53.502;10.252;2023-01-06T15:58:58;10.27;;;2.07;;
16119;SDS011;12670;53.502;10.252;2023-01-06T16:02:02;11.30;;;4.07;;
16119;SDS011;12670;53.502;10.252;2023-01-06T16:08:39;6.07;;;1.83;;
16119;SDS011;12670;53.502;10.252;2023-01-06T16:11:42;8.80;;;1.63;;
16119;SDS011;12670;53.502;10.252;2023-01-06T16:14:59;5.60;;;1.60;;
16119;SDS011;12670;53.502;10.252;2023-01-06T16:18:45;7.47;;;1.63;;
16119;SDS011;12670;53.502;10.252;2023-01-06T16:21:51;7.80;;;1.73;;
16119;SDS011;12670;53.502;10.252;2023-01-06T16:24:55;10.00;;;1.53;;
16119;SDS011;12670;53.502;10.252;2023-01-06T16:27:58;8.13;;;1.30;;
16119;SDS011;12670;53.502;10.252;2023-01-06T16:31:04;6.87;;;1.73;;
16119;SDS011;12670;53.502;10.252;2023-01-06T16:34:15;12.53;;;1.90;;
16119;SDS011;12670;53.502;10.252;2023-01-06T16:37:26;6.57;;;1.90;;
16119;SDS011;12670;53.502;10.252;2023-01-06T16:40:34;5.70;;;1.63;;
16119;SDS011;12670;53.502;10.252;2023-01-06T16:43:37;7.67;;;1.60;;
16119;SDS011;12670;53.502;10.252;2023-01-06T16:46:39;13.23;;;2.20;;
16119;SDS011;12670;53.502;10.252;2023-01-06T16:49:42;6.83;;;1.73;;
16119;SDS011;12670;53.502;10.252;2023-01-06T16:52:47;12.97;;;2.03;;
16119;SDS011;12670;53.502;10.252;2023-01-06T16:55:55;10.50;;;1.90;;
16119;SDS011;12670;53.502;10.252;2023-01-06T16:58:58;7.47;;;2.33;;
16119;SDS011;12670;53.502;10.252;2023-01-06T17:02:05;5.27;;;1.70;;
16119;SDS011;12670;53.502;10.252;2023-01-06T17:05:19;8.13;;;1.70;;
16119;SDS011;12670;53.502;10.252;2023-01-06T17:08:26;4.27;;;1.60;;
16119;SDS011;12670;53.502;10.252;2023-01-06T17:11:30;7.50;;;2.50;;
16119;SDS011;12670;53.502;10.252;2023-01-06T17:14:37;6.53;;;2.00;;
16119;SDS011;12670;53.502;10.252;2023-01-06T17:17:41;10.80;;;1.90;;
16119;SDS011;12670;53.502;10.252;2023-01-06T17:20:43;20.90;;;2.27;;
16119;SDS011;12670;53.502;10.252;2023-01-06T17:23:48;17.53;;;2.27;;
16119;SDS011;12670;53.502;10.252;2023-01-06T17:26:53;7.67;;;1.73;;
16119;SDS011;12670;53.502;10.252;2023-01-06T17:29:59;8.80;;;2.00;;
16119;SDS011;12670;53.502;10.252;2023-01-06T17:33:03;8.00;;;2.67;;
16119;SDS011;12670;53.502;10.252;2023-01-06T17:36:08;12.20;;;2.67;;
16119;SDS011;12670;53.502;10.252;2023-01-06T17:39:25;6.83;;;2.27;;
16119;SDS011;12670;53.502;10.252;2023-01-06T17:42:29;9.37;;;2.37;;
16119;SDS011;12670;53.502;10.252;2023-01-06T17:45:34;9.83;;;2.33;;
16119;SDS011;12670;53.502;10.252;2023-01-06T17:48:37;10.53;;;2.47;;
16119;SDS011;12670;53.502;10.252;2023-01-06T17:51:40;11.10;;;2.70;;
16119;SDS011;12670;53.502;10.252;2023-01-06T17:54:50;8.37;;;2.50;;
16119;SDS011;12670;53.502;10.252;2023-01-06T17:58:12;11.60;;;2.50;;
16119;SDS011;12670;53.502;10.252;2023-01-06T18:01:18;13.57;;;2.50;;
16119;SDS011;12670;53.502;10.252;2023-01-06T18:04:23;13.83;;;2.63;;
16119;SDS011;12670;53.502;10.252;2023-01-06T18:07:26;10.73;;;2.87;;
16119;SDS011;12670;53.502;10.252;2023-01-06T18:10:31;8.23;;;2.80;;
16119;SDS011;12670;53.502;10.252;2023-01-06T18:13:36;12.73;;;2.73;;
16119;SDS011;12670;53.502;10.252;2023-01-06T18:16:40;9.10;;;2.80;;
16119;SDS011;12670;53.502;10.252;2023-01-06T18:19:46;10.73;;;2.97;;
16119;SDS011;12670;53.502;10.252;2023-01-06T18:22:48;8.23;;;2.37;;
16119;SDS011;12670;53.502;10.252;2023-01-06T18:25:53;10.13;;;2.50;;
16119;SDS011;12670;53.502;10.252;2023-01-06T18:28:58;7.63;;;2.57;;
16119;SDS011;12670;53.502;10.252;2023-01-06T18:32:16;8.93;;;3.07;;
16119;SDS011;12670;53.502;10.252;2023-01-06T18:35:25;19.47;;;3.70;;
16119;SDS011;12670;53.502;10.252;2023-01-06T18:38:29;11.93;;;3.40;;
16119;SDS011;12670;53.502;10.252;2023-01-06T18:41:33;16.50;;;3.73;;